createdAt,value
2022-12-27T00:02:18.405Z,8.38
2022-12-27T00:04:45.970Z,8.38
2022-12-27T00:07:13.737Z,8.40
2022-12-27T00:09:41.226Z,8.41
2022-12-27T00:12:09.200Z,8.40
2022-12-27T00:14:36.758Z,8.37
2022-12-27T00:17:05.570Z,8.34
2022-12-27T00:19:33.132Z,8.32
2022-12-27T00:22:00.695Z,8.33
2022-12-27T00:24:28.188Z,8.34
2022-12-27T00:26:55.696Z,8.35
2022-12-27T00:29:23.197Z,8.34
2022-12-27T00:31:50.875Z,8.35
2022-12-27T00:34:19.961Z,8.36
2022-12-27T00:36:47.434Z,8.33
2022-12-27T00:39:15.955Z,8.28
2022-12-27T00:41:43.483Z,8.27
2022-12-27T00:44:11.020Z,8.27
2022-12-27T00:46:38.615Z,8.27
2022-12-27T00:49:06.131Z,8.22
2022-12-27T00:51:35.080Z,8.19
2022-12-27T00:54:02.583Z,8.18
2022-12-27T00:56:31.534Z,8.16
2022-12-27T00:59:00.794Z,8.13
2022-12-27T01:01:32.238Z,8.07
2022-12-27T01:03:59.922Z,8.04
2022-12-27T01:06:29.318Z,7.97
2022-12-27T01:08:58.861Z,7.91
2022-12-27T01:11:28.369Z,7.89
2022-12-27T01:13:56.334Z,7.81
2022-12-27T01:16:25.582Z,7.77
2022-12-27T01:18:53.502Z,7.71
2022-12-27T01:21:22.826Z,7.67
2022-12-27T01:23:50.537Z,7.64
2022-12-27T01:26:22.286Z,7.62
2022-12-27T01:28:50.211Z,7.57
2022-12-27T01:31:20.164Z,7.52
2022-12-27T01:33:48.646Z,7.46
2022-12-27T01:36:18.014Z,7.43
2022-12-27T01:38:47.965Z,7.39
2022-12-27T01:41:35.673Z,7.34
2022-12-27T01:44:36.439Z,7.30
2022-12-27T01:47:12.762Z,7.28
2022-12-27T01:49:41.599Z,7.24
2022-12-27T01:52:11.613Z,7.19
2022-12-27T01:54:39.337Z,7.15
2022-12-27T01:57:07.603Z,7.12
2022-12-27T01:59:35.687Z,7.06
2022-12-27T02:02:05.579Z,7.03
2022-12-27T02:04:34.652Z,6.99
2022-12-27T02:07:02.750Z,6.95
2022-12-27T02:09:36.284Z,6.90
2022-12-27T02:12:07.909Z,6.88
2022-12-27T02:14:43.593Z,6.84
2022-12-27T02:17:15.213Z,6.81
2022-12-27T02:19:50.841Z,6.77
2022-12-27T02:23:06.567Z,6.71
2022-12-27T02:25:56.485Z,6.66
2022-12-27T02:28:41.569Z,6.65
2022-12-27T02:31:15.930Z,6.63
2022-12-27T02:33:47.762Z,6.63
2022-12-27T02:36:20.367Z,6.64
2022-12-27T02:38:53.025Z,6.62
2022-12-27T02:41:38.822Z,6.60
2022-12-27T02:44:25.484Z,6.60
2022-12-27T02:47:10.656Z,6.56
2022-12-27T02:49:58.032Z,6.56
2022-12-27T02:52:58.653Z,6.55
2022-12-27T02:56:19.348Z,6.54
2022-12-27T02:59:00.212Z,6.54
2022-12-27T03:02:01.355Z,6.53
2022-12-27T03:04:46.949Z,6.52
2022-12-27T03:07:26.682Z,6.48
2022-12-27T03:10:26.328Z,6.46
2022-12-27T03:13:18.422Z,6.47
2022-12-27T03:15:58.964Z,6.46
2022-12-27T03:18:36.776Z,6.47
2022-12-27T03:21:24.850Z,6.46
2022-12-27T03:24:13.573Z,6.45
2022-12-27T03:26:47.273Z,6.40
2022-12-27T03:29:34.784Z,6.37
2022-12-27T03:32:24.884Z,6.35
2022-12-27T03:34:59.909Z,6.35
2022-12-27T03:37:49.067Z,6.35
2022-12-27T03:40:21.866Z,6.38
2022-12-27T03:43:10.335Z,6.40
2022-12-27T03:46:11.810Z,6.40
2022-12-27T03:48:52.889Z,6.36
2022-12-27T03:51:24.573Z,6.36
2022-12-27T03:53:57.420Z,6.35
2022-12-27T03:56:25.079Z,6.38
2022-12-27T03:58:53.904Z,6.34
2022-12-27T04:01:21.504Z,6.29
2022-12-27T04:03:49.135Z,6.28
2022-12-27T04:06:16.743Z,6.29
2022-12-27T04:09:03.446Z,6.32
2022-12-27T04:11:48.973Z,6.34
2022-12-27T04:14:34.224Z,6.36
2022-12-27T04:17:19.592Z,6.36
2022-12-27T04:20:04.955Z,6.36
2022-12-27T04:22:50.689Z,6.38
2022-12-27T04:25:37.330Z,6.38
2022-12-27T04:28:22.635Z,6.39
2022-12-27T04:31:08.146Z,6.39
2022-12-27T04:33:53.518Z,6.38
2022-12-27T04:36:21.068Z,6.40
2022-12-27T04:38:48.632Z,6.42
2022-12-27T04:41:35.270Z,6.44
2022-12-27T04:44:20.652Z,6.44
2022-12-27T04:47:06.058Z,6.44
2022-12-27T04:49:52.582Z,6.45
2022-12-27T04:52:39.428Z,6.46
2022-12-27T04:55:15.258Z,6.45
2022-12-27T04:57:44.089Z,6.45
2022-12-27T05:00:30.971Z,6.46
2022-12-27T05:02:59.512Z,6.44
2022-12-27T05:05:27.397Z,6.43
2022-12-27T05:08:12.907Z,6.42
2022-12-27T05:10:58.345Z,6.42
2022-12-27T05:13:44.881Z,6.41
2022-12-27T05:16:12.425Z,6.41
2022-12-27T05:18:39.952Z,6.39
2022-12-27T05:21:08.447Z,6.38
2022-12-27T05:23:54.009Z,6.37
2022-12-27T05:26:22.275Z,6.37
2022-12-27T05:28:52.510Z,6.37
2022-12-27T05:31:21.034Z,6.36
2022-12-27T05:33:48.831Z,6.34
2022-12-27T05:36:16.457Z,6.35
2022-12-27T05:38:44.134Z,6.35
2022-12-27T05:41:12.007Z,6.34
2022-12-27T05:43:39.528Z,6.32
2022-12-27T05:46:10.389Z,6.31
2022-12-27T05:48:38.256Z,6.33
2022-12-27T05:51:06.847Z,6.34
2022-12-27T05:53:34.451Z,6.34
2022-12-27T05:56:02.014Z,6.34
2022-12-27T05:58:29.921Z,6.36
2022-12-27T06:00:57.820Z,6.36
2022-12-27T06:03:26.729Z,6.37
2022-12-27T06:06:00.790Z,6.35
2022-12-27T06:08:28.717Z,6.31
2022-12-27T06:11:04.233Z,6.31
2022-12-27T06:13:32.134Z,6.29
2022-12-27T06:16:01.303Z,6.29
2022-12-27T06:18:33.221Z,6.30
2022-12-27T06:21:05.388Z,6.27
2022-12-27T06:23:33.639Z,6.25
2022-12-27T06:26:05.568Z,6.18
2022-12-27T06:28:33.191Z,6.16
2022-12-27T06:31:00.757Z,6.16
2022-12-27T06:33:28.369Z,6.17
2022-12-27T06:35:57.640Z,6.16
2022-12-27T06:38:25.227Z,6.18
2022-12-27T06:40:52.739Z,6.19
2022-12-27T06:43:20.253Z,6.18
2022-12-27T06:45:56.812Z,6.19
2022-12-27T06:48:24.667Z,6.20
2022-12-27T06:50:52.233Z,6.15
2022-12-27T06:53:21.344Z,6.14
2022-12-27T06:55:49.273Z,6.15
2022-12-27T06:58:16.863Z,6.18
2022-12-27T07:00:44.369Z,6.18
2022-12-27T07:03:11.927Z,6.16
2022-12-27T07:05:40.450Z,6.11
2022-12-27T07:08:07.944Z,6.06
2022-12-27T07:10:37.421Z,5.98
2022-12-27T07:13:05.148Z,5.89
2022-12-27T07:50:32.585Z,5.28
2022-12-27T07:53:00.124Z,5.26
2022-12-27T07:55:27.716Z,5.25
2022-12-27T07:57:55.220Z,5.25
2022-12-27T08:00:22.793Z,5.27
2022-12-27T08:02:50.355Z,5.26
2022-12-27T08:05:21.437Z,5.24
2022-12-27T08:07:53.919Z,5.22
2022-12-27T08:10:21.375Z,5.25
2022-12-27T08:12:48.873Z,5.28
2022-12-27T08:15:16.437Z,5.33
2022-12-27T08:17:44.021Z,5.32
2022-12-27T08:20:15.013Z,5.32
2022-12-27T08:22:42.537Z,5.35
2022-12-27T08:25:11.616Z,5.41
2022-12-27T08:27:39.144Z,5.45
2022-12-27T08:30:08.252Z,5.45
2022-12-27T08:32:35.745Z,5.48
2022-12-27T08:35:25.208Z,5.53
2022-12-27T08:37:50.766Z,5.62
2022-12-27T08:40:19.870Z,5.66
2022-12-27T08:42:47.778Z,5.74
2022-12-27T08:45:15.792Z,5.82
2022-12-27T08:47:43.330Z,5.87
2022-12-27T08:50:11.249Z,5.90
2022-12-27T08:52:38.807Z,5.96
2022-12-27T08:55:07.337Z,6.05
2022-12-27T08:57:36.211Z,6.11
2022-12-27T09:00:06.750Z,6.17
2022-12-27T09:02:34.295Z,6.22
2022-12-27T09:05:01.849Z,6.21
2022-12-27T09:07:29.472Z,6.23
2022-12-27T09:09:56.996Z,6.26
2022-12-27T09:12:24.514Z,6.31
2022-12-27T09:14:53.351Z,6.36
2022-12-27T09:17:20.943Z,6.42
2022-12-27T09:19:48.653Z,6.48
2022-12-27T09:22:16.222Z,6.52
2022-12-27T09:24:43.855Z,6.56
2022-12-27T09:27:11.369Z,6.63
2022-12-27T09:29:43.002Z,6.68
2022-12-27T09:32:15.343Z,6.72
2022-12-27T09:34:42.842Z,6.75
2022-12-27T09:37:10.311Z,6.79
2022-12-27T09:39:37.858Z,6.82
2022-12-27T09:45:04.463Z,6.93
2022-12-27T09:47:41.952Z,6.97
2022-12-27T09:50:14.832Z,6.99
2022-12-27T09:52:48.908Z,7.03
2022-12-27T09:55:20.517Z,7.07
2022-12-27T09:57:49.061Z,7.11
2022-12-27T10:00:32.802Z,7.15
2022-12-27T10:03:06.313Z,7.19
2022-12-27T10:05:37.456Z,7.22
2022-12-27T10:08:21.017Z,7.25
2022-12-27T10:10:54.318Z,7.30
2022-12-27T10:13:36.147Z,7.35
2022-12-27T10:16:14.921Z,7.41
2022-12-27T10:18:55.184Z,7.47
2022-12-27T10:21:25.561Z,7.52
2022-12-27T10:23:58.528Z,7.56
2022-12-27T10:26:26.036Z,7.58
2022-12-27T10:29:00.244Z,7.61
2022-12-27T10:31:28.509Z,7.67
2022-12-27T10:33:58.285Z,7.73
2022-12-27T10:36:29.212Z,7.79
2022-12-27T10:38:56.820Z,7.83
2022-12-27T10:41:34.361Z,7.89
2022-12-27T10:44:01.866Z,7.95
2022-12-27T10:46:33.361Z,8.00
2022-12-27T10:49:22.027Z,8.06
2022-12-27T10:51:52.135Z,8.11
2022-12-27T10:54:24.522Z,8.16
2022-12-27T10:56:52.298Z,8.25
2022-12-27T10:59:22.082Z,8.35
2022-12-27T11:02:07.879Z,8.43
2022-12-27T11:04:36.771Z,8.50
2022-12-27T11:07:14.546Z,8.57
2022-12-27T11:09:50.383Z,8.64
2022-12-27T11:12:21.053Z,8.74
2022-12-27T11:14:56.642Z,8.81
2022-12-27T11:17:27.139Z,8.86
2022-12-27T11:19:58.437Z,8.94
2022-12-27T11:22:26.912Z,9.03
2022-12-27T11:25:00.194Z,9.13
2022-12-27T11:27:29.780Z,9.21
2022-12-27T11:30:00.347Z,9.30
2022-12-27T11:32:28.046Z,9.41
2022-12-27T11:34:57.833Z,9.49
2022-12-27T11:37:28.132Z,9.62
2022-12-27T11:40:01.708Z,9.73
2022-12-27T11:42:38.387Z,9.85
2022-12-27T11:45:12.275Z,9.99
2022-12-27T11:47:45.084Z,10.07
2022-12-27T11:50:23.932Z,10.21
2022-12-27T11:53:06.835Z,10.31
2022-12-27T11:55:53.784Z,10.37
2022-12-27T11:59:01.317Z,10.46
2022-12-27T12:01:54.780Z,10.54
2022-12-27T12:04:44.966Z,10.62
2022-12-27T12:07:26.267Z,10.70
2022-12-27T12:10:18.490Z,10.75
2022-12-27T12:13:10.941Z,10.83
2022-12-27T12:15:55.538Z,10.90
2022-12-27T12:18:35.158Z,10.97
2022-12-27T12:21:29.637Z,11.05
2022-12-27T12:24:27.711Z,11.09
2022-12-27T12:27:14.997Z,11.08
2022-12-27T12:30:10.114Z,11.05
2022-12-27T12:32:51.312Z,11.02
2022-12-27T12:35:49.621Z,10.99
2022-12-27T12:38:22.207Z,10.90
2022-12-27T12:41:31.535Z,10.82
2022-12-27T12:44:26.167Z,10.74
2022-12-27T12:47:01.357Z,10.62
2022-12-27T12:49:46.000Z,10.54
2022-12-27T12:52:36.230Z,10.43
2022-12-27T12:55:26.701Z,10.35
2022-12-27T12:58:05.721Z,10.27
2022-12-27T13:00:51.506Z,10.21
2022-12-27T13:03:41.643Z,10.18
2022-12-27T13:06:20.940Z,10.17
2022-12-27T13:08:58.260Z,10.14
2022-12-27T13:11:37.341Z,10.13
2022-12-27T13:14:24.666Z,10.11
2022-12-27T13:17:00.403Z,10.06
2022-12-27T13:19:50.634Z,10.05
2022-12-27T13:22:29.856Z,10.00
2022-12-27T13:25:11.590Z,9.93
2022-12-27T13:27:48.390Z,9.88
2022-12-27T13:30:21.151Z,9.88
2022-12-27T13:33:01.133Z,9.90
2022-12-27T13:35:42.208Z,9.83
2022-12-27T13:38:25.768Z,9.80
2022-12-27T13:41:06.844Z,9.75
2022-12-27T13:43:58.464Z,9.73
2022-12-27T13:46:42.890Z,9.72
2022-12-27T13:49:31.302Z,9.68
2022-12-27T13:52:12.744Z,9.68
2022-12-27T13:55:01.597Z,9.70
2022-12-27T13:57:54.429Z,9.74
2022-12-27T14:00:23.404Z,9.75
2022-12-27T14:03:19.950Z,9.77
2022-12-27T14:16:50.536Z,9.65
2022-12-27T14:19:39.676Z,9.64
2022-12-27T14:22:29.435Z,9.63
2022-12-27T14:25:29.579Z,9.61
2022-12-27T14:28:37.221Z,9.60
2022-12-27T14:31:40.615Z,9.56
2022-12-27T14:34:23.780Z,9.58
2022-12-27T14:37:11.119Z,9.52
2022-12-27T14:40:07.107Z,9.49
2022-12-27T14:43:09.377Z,9.45
2022-12-27T14:46:06.129Z,9.41
2022-12-27T14:49:03.973Z,9.38
2022-12-27T14:52:12.451Z,9.35
2022-12-27T14:55:05.180Z,9.30
2022-12-27T14:57:40.376Z,9.26
2022-12-27T15:00:16.844Z,9.23
2022-12-27T15:03:01.392Z,9.21
2022-12-27T15:05:45.774Z,9.19
2022-12-27T15:08:41.030Z,9.17
2022-12-27T15:11:39.051Z,9.13
2022-12-27T15:14:23.148Z,9.06
2022-12-27T15:17:00.130Z,9.04
2022-12-27T15:19:45.640Z,9.00
2022-12-27T15:22:21.447Z,8.96
2022-12-27T15:24:57.009Z,8.92
2022-12-27T15:27:31.534Z,8.90
2022-12-27T15:30:10.659Z,8.85
2022-12-27T15:32:53.045Z,8.80
2022-12-27T15:35:44.568Z,8.72
2022-12-27T15:38:15.101Z,8.64
2022-12-27T15:41:13.986Z,8.58
2022-12-27T15:44:17.043Z,8.55
2022-12-27T15:47:18.140Z,8.48
2022-12-27T15:50:18.675Z,8.45
2022-12-27T15:53:06.028Z,8.39
2022-12-27T15:55:57.593Z,8.30
2022-12-27T15:58:27.117Z,8.25
2022-12-27T16:01:26.202Z,8.19
2022-12-27T16:03:55.077Z,8.18
2022-12-27T16:06:51.420Z,8.15
2022-12-27T16:09:22.764Z,8.11
2022-12-27T16:12:01.474Z,8.04
2022-12-27T16:14:33.587Z,8.01
2022-12-27T16:17:22.640Z,7.93
2022-12-27T16:20:04.536Z,7.84
2022-12-27T16:22:37.002Z,7.76
2022-12-27T16:25:26.989Z,7.71
2022-12-27T16:28:02.203Z,7.62
2022-12-27T16:30:42.614Z,7.54
2022-12-27T16:33:23.317Z,7.45
2022-12-27T16:36:13.907Z,7.33
2022-12-27T16:38:47.549Z,7.24
2022-12-27T16:41:19.623Z,7.19
2022-12-27T16:43:55.291Z,7.14
2022-12-27T16:46:45.128Z,7.06
2022-12-27T16:49:43.879Z,6.96
2022-12-27T16:52:33.862Z,6.85
2022-12-27T16:55:22.607Z,6.76
2022-12-27T16:57:50.647Z,6.69
2022-12-27T17:00:38.602Z,6.66
2022-12-27T17:03:31.312Z,6.63
2022-12-27T17:09:34.092Z,6.55
2022-12-27T17:12:13.414Z,6.50
2022-12-27T17:14:44.179Z,6.43
2022-12-27T17:17:17.613Z,6.37
2022-12-27T17:19:51.513Z,6.34
2022-12-27T17:22:19.761Z,6.28
2022-12-27T17:24:49.343Z,6.23
2022-12-27T17:27:26.492Z,6.22
2022-12-27T17:30:07.584Z,6.17
2022-12-27T17:32:51.916Z,6.15
2022-12-27T17:35:29.237Z,6.11
2022-12-27T17:38:13.086Z,6.07
2022-12-27T17:40:48.037Z,6.04
2022-12-27T17:43:53.369Z,6.03
2022-12-27T17:46:30.996Z,6.03
2022-12-27T17:48:59.039Z,6.03
2022-12-27T17:51:31.165Z,6.02
2022-12-27T17:54:16.171Z,5.99
2022-12-27T17:57:03.583Z,5.89
2022-12-27T17:59:32.660Z,5.81
2022-12-27T18:02:04.902Z,5.72
2022-12-27T18:04:36.519Z,5.63
2022-12-27T18:07:08.517Z,5.55
2022-12-27T18:09:40.658Z,5.53
2022-12-27T18:12:15.927Z,5.54
2022-12-27T18:14:44.659Z,5.55
2022-12-27T18:17:28.788Z,5.57
2022-12-27T18:19:57.310Z,5.59
2022-12-27T18:22:26.479Z,5.58
2022-12-27T18:24:54.001Z,5.54
2022-12-27T18:27:25.526Z,5.50
2022-12-27T18:29:53.077Z,5.46
2022-12-27T18:32:20.738Z,5.39
2022-12-27T18:34:54.951Z,5.32
2022-12-27T18:37:24.695Z,5.23
2022-12-27T18:39:56.162Z,5.15
2022-12-27T18:42:30.932Z,5.08
2022-12-27T18:45:02.497Z,4.99
2022-12-27T18:47:30.329Z,4.90
2022-12-27T18:50:00.417Z,4.82
2022-12-27T18:52:32.909Z,4.76
2022-12-27T18:55:16.513Z,4.72
2022-12-27T18:57:44.541Z,4.69
2022-12-27T19:00:21.558Z,4.63
2022-12-27T19:02:50.363Z,4.59
2022-12-27T19:05:28.386Z,4.60
2022-12-27T19:08:01.775Z,4.59
2022-12-27T19:10:33.430Z,4.58
2022-12-27T19:13:02.393Z,4.57
2022-12-27T19:15:38.743Z,4.55
2022-12-27T19:18:16.640Z,4.52
2022-12-27T19:20:53.367Z,4.52
2022-12-27T19:23:31.013Z,4.50
2022-12-27T19:26:04.494Z,4.46
2022-12-27T19:28:32.911Z,4.39
2022-12-27T19:31:18.055Z,4.34
2022-12-27T19:33:48.751Z,4.32
2022-12-27T19:36:16.746Z,4.32
2022-12-27T19:38:47.977Z,4.33
2022-12-27T19:41:17.079Z,4.33
2022-12-27T19:43:46.214Z,4.30
2022-12-27T19:46:15.028Z,4.27
2022-12-27T19:48:43.705Z,4.26
2022-12-27T19:51:15.952Z,4.25
2022-12-27T19:53:46.298Z,4.22
2022-12-27T19:56:13.810Z,4.18
2022-12-27T19:58:42.670Z,4.17
2022-12-27T20:01:10.309Z,4.15
2022-12-27T20:03:37.916Z,4.10
2022-12-27T20:06:12.866Z,4.07
2022-12-27T20:08:45.534Z,4.09
2022-12-27T20:11:17.134Z,4.09
2022-12-27T20:13:46.004Z,4.07
2022-12-27T20:27:01.712Z,4.07
2022-12-27T20:29:30.940Z,4.02
2022-12-27T20:31:59.070Z,4.02
2022-12-27T20:34:26.688Z,4.01
2022-12-27T20:36:55.370Z,3.99
2022-12-27T20:39:22.918Z,3.98
2022-12-27T20:41:50.436Z,3.96
2022-12-27T20:44:19.287Z,3.98
2022-12-27T20:46:48.553Z,3.99
2022-12-27T20:49:16.069Z,4.00
2022-12-27T20:51:43.587Z,4.02
2022-12-27T20:54:13.202Z,4.03
2022-12-27T20:56:40.726Z,4.08
2022-12-27T20:59:08.284Z,4.09
2022-12-27T21:01:36.113Z,4.11
2022-12-27T21:04:05.903Z,4.11
2022-12-27T21:06:33.411Z,4.13
2022-12-27T21:09:00.985Z,4.13
2022-12-27T21:11:31.593Z,4.13
2022-12-27T21:14:00.231Z,4.13
2022-12-27T21:16:29.263Z,4.15
2022-12-27T21:18:57.219Z,4.16
2022-12-27T21:21:29.010Z,4.20
2022-12-27T21:23:56.879Z,4.23
2022-12-27T21:26:26.487Z,4.26
2022-12-27T21:28:54.087Z,4.27
2022-12-27T21:31:23.141Z,4.27
2022-12-27T21:33:50.867Z,4.25
2022-12-27T21:36:20.416Z,4.22
2022-12-27T21:38:49.857Z,4.15
2022-12-27T21:41:19.306Z,4.10
2022-12-27T21:43:48.812Z,4.04
2022-12-27T21:46:18.396Z,3.91
2022-12-27T21:48:46.068Z,3.82
2022-12-27T21:51:16.092Z,3.71
2022-12-27T21:53:43.823Z,3.64
2022-12-27T21:56:13.895Z,3.62
2022-12-27T21:58:42.779Z,3.65
2022-12-27T22:01:13.870Z,3.67
2022-12-27T22:03:44.648Z,3.65
2022-12-27T22:06:13.201Z,3.61
2022-12-27T22:08:41.626Z,3.58
2022-12-27T22:11:09.716Z,3.58
2022-12-27T22:13:38.892Z,3.64
2022-12-27T22:16:09.418Z,3.68
2022-12-27T22:18:41.285Z,3.71
2022-12-27T22:21:09.527Z,3.72
2022-12-27T22:23:39.778Z,3.74
2022-12-27T22:26:11.900Z,3.79
2022-12-27T22:28:41.145Z,3.83
2022-12-27T22:31:10.491Z,3.85
2022-12-27T22:33:38.714Z,3.83
2022-12-27T22:36:08.365Z,3.78
2022-12-27T22:38:36.911Z,3.75
2022-12-27T22:41:05.875Z,3.74
2022-12-27T22:43:33.376Z,3.72
2022-12-27T22:46:06.460Z,3.72
2022-12-27T22:48:34.426Z,3.71
2022-12-27T22:51:07.322Z,3.70
2022-12-27T22:53:35.024Z,3.69
2022-12-27T22:56:02.587Z,3.70
2022-12-27T22:58:32.137Z,3.71
2022-12-27T23:01:00.572Z,3.68
2022-12-27T23:03:29.436Z,3.64
2022-12-27T23:05:58.384Z,3.62
2022-12-27T23:08:26.079Z,3.60
2022-12-27T23:10:53.656Z,3.57
2022-12-27T23:13:22.926Z,3.55
2022-12-27T23:15:57.282Z,3.57
2022-12-27T23:18:25.103Z,3.58
2022-12-27T23:21:21.595Z,3.59
2022-12-27T23:23:42.569Z,3.57
2022-12-27T23:26:13.785Z,3.58
2022-12-27T23:28:43.424Z,3.59
2022-12-27T23:31:12.074Z,3.56
2022-12-27T23:33:40.580Z,3.59
2022-12-27T23:36:10.935Z,3.63
2022-12-27T23:38:38.855Z,3.67
2022-12-27T23:41:07.987Z,3.68
2022-12-27T23:43:55.014Z,3.70
2022-12-27T23:46:28.197Z,3.74
2022-12-27T23:48:56.808Z,3.76
2022-12-27T23:51:25.957Z,3.71
2022-12-27T23:53:53.915Z,3.66
2022-12-27T23:56:23.314Z,3.58
2022-12-27T23:58:52.667Z,3.55
